sensor_id;sensor_type;location;lat;lon;timestamp;P1;durP1;ratioP1;P2;durP2;ratioP2
9807;SDS011;4943;52.550;13.462;2023-10-09T00:00:06;265.30;;;102.07;;
9807;SDS011;4943;52.550;13.462;2023-10-09T00:02:55;263.17;;;101.30;;
9807;SDS011;4943;52.550;13.462;2023-10-09T00:05:25;266.87;;;103.87;;
9807;SDS011;4943;52.550;13.462;2023-10-09T00:08:04;264.30;;;100.00;;
9807;SDS011;4943;52.550;13.462;2023-10-09T00:10:35;263.70;;;100.57;;
9807;SDS011;4943;52.550;13.462;2023-10-09T00:13:16;264.00;;;100.63;;
9807;SDS011;4943;52.550;13.462;2023-10-09T00:15:44;265.10;;;103.67;;
9807;SDS011;4943;52.550;13.462;2023-10-09T00:18:18;268.07;;;109.53;;
9807;SDS011;4943;52.550;13.462;2023-10-09T00:20:56;266.47;;;105.40;;
9807;SDS011;4943;52.550;13.462;2023-10-09T00:23:27;269.63;;;105.93;;
9807;SDS011;4943;52.550;13.462;2023-10-09T00:25:58;265.47;;;103.53;;
9807;SDS011;4943;52.550;13.462;2023-10-09T00:28:40;265.73;;;103.53;;
9807;SDS011;4943;52.550;13.462;2023-10-09T00:31:09;266.50;;;103.37;;
9807;SDS011;4943;52.550;13.462;2023-10-09T00:33:41;266.90;;;107.03;;
9807;SDS011;4943;52.550;13.462;2023-10-09T00:36:10;269.00;;;111.97;;
9807;SDS011;4943;52.550;13.462;2023-10-09T00:38:44;274.77;;;109.97;;
9807;SDS011;4943;52.550;13.462;2023-10-09T00:41:17;268.30;;;111.33;;
9807;SDS011;4943;52.550;13.462;2023-10-09T00:43:52;271.80;;;112.07;;
9807;SDS011;4943;52.550;13.462;2023-10-09T00:46:20;276.27;;;116.97;;
9807;SDS011;4943;52.550;13.462;2023-10-09T00:48:56;268.80;;;114.53;;
9807;SDS011;4943;52.550;13.462;2023-10-09T00:51:29;270.30;;;113.23;;
9807;SDS011;4943;52.550;13.462;2023-10-09T00:54:02;269.47;;;110.77;;
9807;SDS011;4943;52.550;13.462;2023-10-09T00:56:40;268.53;;;109.30;;
9807;SDS011;4943;52.550;13.462;2023-10-09T00:59:19;269.70;;;110.23;;
9807;SDS011;4943;52.550;13.462;2023-10-09T01:01:50;269.83;;;114.63;;
9807;SDS011;4943;52.550;13.462;2023-10-09T01:04:24;272.37;;;113.43;;
9807;SDS011;4943;52.550;13.462;2023-10-09T01:06:56;268.63;;;112.67;;
9807;SDS011;4943;52.550;13.462;2023-10-09T01:09:34;270.50;;;112.07;;
9807;SDS011;4943;52.550;13.462;2023-10-09T01:12:04;270.67;;;112.93;;
9807;SDS011;4943;52.550;13.462;2023-10-09T01:14:34;271.17;;;117.00;;
9807;SDS011;4943;52.550;13.462;2023-10-09T01:17:05;270.13;;;113.70;;
9807;SDS011;4943;52.550;13.462;2023-10-09T01:19:55;272.37;;;115.17;;
9807;SDS011;4943;52.550;13.462;2023-10-09T01:22:29;272.97;;;111.60;;
9807;SDS011;4943;52.550;13.462;2023-10-09T01:24:59;271.37;;;116.83;;
9807;SDS011;4943;52.550;13.462;2023-10-09T01:27:32;273.53;;;112.30;;
9807;SDS011;4943;52.550;13.462;2023-10-09T01:30:00;271.33;;;116.17;;
9807;SDS011;4943;52.550;13.462;2023-10-09T01:32:30;269.50;;;116.80;;
9807;SDS011;4943;52.550;13.462;2023-10-09T01:34:58;270.77;;;117.40;;
9807;SDS011;4943;52.550;13.462;2023-10-09T01:37:26;272.97;;;121.37;;
9807;SDS011;4943;52.550;13.462;2023-10-09T01:39:55;270.90;;;117.70;;
9807;SDS011;4943;52.550;13.462;2023-10-09T01:42:27;271.30;;;116.60;;
9807;SDS011;4943;52.550;13.462;2023-10-09T01:45:01;269.53;;;113.17;;
9807;SDS011;4943;52.550;13.462;2023-10-09T01:47:38;271.00;;;118.20;;
9807;SDS011;4943;52.550;13.462;2023-10-09T01:50:07;273.20;;;119.03;;
9807;SDS011;4943;52.550;13.462;2023-10-09T01:52:46;272.53;;;117.63;;
9807;SDS011;4943;52.550;13.462;2023-10-09T01:55:16;278.07;;;119.97;;
9807;SDS011;4943;52.550;13.462;2023-10-09T01:57:56;276.60;;;120.63;;
9807;SDS011;4943;52.550;13.462;2023-10-09T02:00:31;270.57;;;117.13;;
9807;SDS011;4943;52.550;13.462;2023-10-09T02:03:10;271.97;;;118.87;;
9807;SDS011;4943;52.550;13.462;2023-10-09T02:05:50;270.60;;;116.80;;
9807;SDS011;4943;52.550;13.462;2023-10-09T02:08:19;271.10;;;118.20;;
9807;SDS011;4943;52.550;13.462;2023-10-09T02:10:53;271.13;;;116.30;;
9807;SDS011;4943;52.550;13.462;2023-10-09T02:13:23;276.70;;;123.77;;
9807;SDS011;4943;52.550;13.462;2023-10-09T02:15:55;274.73;;;124.27;;
9807;SDS011;4943;52.550;13.462;2023-10-09T02:18:39;275.27;;;122.30;;
9807;SDS011;4943;52.550;13.462;2023-10-09T02:21:19;275.47;;;123.40;;
9807;SDS011;4943;52.550;13.462;2023-10-09T02:23:59;277.50;;;129.40;;
9807;SDS011;4943;52.550;13.462;2023-10-09T02:26:31;276.30;;;125.83;;
9807;SDS011;4943;52.550;13.462;2023-10-09T02:29:22;276.77;;;127.30;;
9807;SDS011;4943;52.550;13.462;2023-10-09T02:31:51;274.23;;;122.13;;
9807;SDS011;4943;52.550;13.462;2023-10-09T02:34:27;275.47;;;122.93;;
9807;SDS011;4943;52.550;13.462;2023-10-09T02:36:56;278.83;;;129.00;;
9807;SDS011;4943;52.550;13.462;2023-10-09T02:39:30;276.67;;;126.67;;
9807;SDS011;4943;52.550;13.462;2023-10-09T02:42:03;276.40;;;126.37;;
9807;SDS011;4943;52.550;13.462;2023-10-09T02:44:47;276.07;;;125.47;;
9807;SDS011;4943;52.550;13.462;2023-10-09T02:47:17;279.27;;;125.93;;
9807;SDS011;4943;52.550;13.462;2023-10-09T02:49:47;275.93;;;123.70;;
9807;SDS011;4943;52.550;13.462;2023-10-09T02:52:16;276.37;;;127.60;;
9807;SDS011;4943;52.550;13.462;2023-10-09T02:54:51;275.13;;;123.97;;
9807;SDS011;4943;52.550;13.462;2023-10-09T02:57:26;275.70;;;124.50;;
9807;SDS011;4943;52.550;13.462;2023-10-09T03:00:04;276.17;;;126.63;;
9807;SDS011;4943;52.550;13.462;2023-10-09T03:02:44;274.33;;;126.83;;
9807;SDS011;4943;52.550;13.462;2023-10-09T03:05:16;278.13;;;128.43;;
9807;SDS011;4943;52.550;13.462;2023-10-09T03:07:47;276.27;;;121.93;;
9807;SDS011;4943;52.550;13.462;2023-10-09T03:10:15;275.30;;;127.93;;
9807;SDS011;4943;52.550;13.462;2023-10-09T03:12:43;275.60;;;126.23;;
9807;SDS011;4943;52.550;13.462;2023-10-09T03:15:13;275.07;;;125.03;;
9807;SDS011;4943;52.550;13.462;2023-10-09T03:17:41;272.93;;;121.50;;
9807;SDS011;4943;52.550;13.462;2023-10-09T03:20:09;273.97;;;125.93;;
9807;SDS011;4943;52.550;13.462;2023-10-09T03:22:40;274.57;;;125.17;;
9807;SDS011;4943;52.550;13.462;2023-10-09T03:25:09;273.87;;;119.40;;
9807;SDS011;4943;52.550;13.462;2023-10-09T03:27:40;277.63;;;126.77;;
9807;SDS011;4943;52.550;13.462;2023-10-09T03:30:13;273.80;;;123.23;;
9807;SDS011;4943;52.550;13.462;2023-10-09T03:32:50;276.87;;;127.87;;
9807;SDS011;4943;52.550;13.462;2023-10-09T03:35:20;274.17;;;123.53;;
9807;SDS011;4943;52.550;13.462;2023-10-09T03:37:55;278.60;;;130.43;;
9807;SDS011;4943;52.550;13.462;2023-10-09T03:40:27;278.03;;;124.33;;
9807;SDS011;4943;52.550;13.462;2023-10-09T03:42:56;280.83;;;128.87;;
9807;SDS011;4943;52.550;13.462;2023-10-09T03:45:28;281.87;;;131.90;;
9807;SDS011;4943;52.550;13.462;2023-10-09T03:48:01;276.90;;;129.47;;
9807;SDS011;4943;52.550;13.462;2023-10-09T03:50:35;274.80;;;124.40;;
9807;SDS011;4943;52.550;13.462;2023-10-09T03:53:04;279.93;;;136.27;;
9807;SDS011;4943;52.550;13.462;2023-10-09T03:55:37;285.37;;;139.73;;
9807;SDS011;4943;52.550;13.462;2023-10-09T03:58:05;280.90;;;134.60;;
9807;SDS011;4943;52.550;13.462;2023-10-09T04:00:36;287.57;;;137.37;;
9807;SDS011;4943;52.550;13.462;2023-10-09T04:03:12;277.60;;;131.60;;
9807;SDS011;4943;52.550;13.462;2023-10-09T04:05:42;279.03;;;133.83;;
9807;SDS011;4943;52.550;13.462;2023-10-09T04:08:10;282.10;;;138.53;;
9807;SDS011;4943;52.550;13.462;2023-10-09T04:10:46;280.87;;;134.77;;
9807;SDS011;4943;52.550;13.462;2023-10-09T04:13:23;279.33;;;134.97;;
9807;SDS011;4943;52.550;13.462;2023-10-09T04:16:01;276.70;;;130.23;;
9807;SDS011;4943;52.550;13.462;2023-10-09T04:18:37;280.80;;;132.70;;
9807;SDS011;4943;52.550;13.462;2023-10-09T04:21:06;279.83;;;136.20;;
9807;SDS011;4943;52.550;13.462;2023-10-09T04:23:46;284.57;;;144.50;;
9807;SDS011;4943;52.550;13.462;2023-10-09T04:26:36;280.80;;;134.73;;
9807;SDS011;4943;52.550;13.462;2023-10-09T04:29:03;284.43;;;143.10;;
9807;SDS011;4943;52.550;13.462;2023-10-09T04:31:33;285.67;;;143.73;;
9807;SDS011;4943;52.550;13.462;2023-10-09T04:34:04;281.13;;;140.17;;
9807;SDS011;4943;52.550;13.462;2023-10-09T04:36:55;279.57;;;126.40;;
9807;SDS011;4943;52.550;13.462;2023-10-09T04:39:26;277.50;;;130.43;;
9807;SDS011;4943;52.550;13.462;2023-10-09T04:42:13;279.27;;;132.87;;
9807;SDS011;4943;52.550;13.462;2023-10-09T04:45:04;278.53;;;126.63;;
9807;SDS011;4943;52.550;13.462;2023-10-09T04:47:52;282.73;;;137.47;;
9807;SDS011;4943;52.550;13.462;2023-10-09T04:50:34;284.43;;;137.70;;
9807;SDS011;4943;52.550;13.462;2023-10-09T04:53:12;284.73;;;140.33;;
9807;SDS011;4943;52.550;13.462;2023-10-09T04:55:51;281.70;;;137.47;;
9807;SDS011;4943;52.550;13.462;2023-10-09T04:58:24;285.13;;;143.63;;
9807;SDS011;4943;52.550;13.462;2023-10-09T05:00:53;284.77;;;136.63;;
9807;SDS011;4943;52.550;13.462;2023-10-09T05:03:42;277.63;;;130.43;;
9807;SDS011;4943;52.550;13.462;2023-10-09T05:06:10;278.27;;;133.00;;
9807;SDS011;4943;52.550;13.462;2023-10-09T05:08:48;279.43;;;130.70;;
9807;SDS011;4943;52.550;13.462;2023-10-09T05:11:21;280.27;;;137.07;;
9807;SDS011;4943;52.550;13.462;2023-10-09T05:14:02;292.70;;;144.07;;
9807;SDS011;4943;52.550;13.462;2023-10-09T05:16:47;290.17;;;132.90;;
9807;SDS011;4943;52.550;13.462;2023-10-09T05:19:23;275.80;;;128.30;;
9807;SDS011;4943;52.550;13.462;2023-10-09T05:21:56;287.93;;;131.10;;
9807;SDS011;4943;52.550;13.462;2023-10-09T05:24:31;279.43;;;132.60;;
9807;SDS011;4943;52.550;13.462;2023-10-09T05:27:10;279.07;;;135.17;;
9807;SDS011;4943;52.550;13.462;2023-10-09T05:30:09;280.03;;;132.67;;
9807;SDS011;4943;52.550;13.462;2023-10-09T05:32:52;279.57;;;132.37;;
9807;SDS011;4943;52.550;13.462;2023-10-09T05:35:26;280.43;;;130.30;;
9807;SDS011;4943;52.550;13.462;2023-10-09T05:38:25;284.63;;;141.13;;
9807;SDS011;4943;52.550;13.462;2023-10-09T05:40:57;288.73;;;135.33;;
9807;SDS011;4943;52.550;13.462;2023-10-09T05:43:44;280.50;;;139.40;;
9807;SDS011;4943;52.550;13.462;2023-10-09T05:46:29;281.67;;;134.87;;
9807;SDS011;4943;52.550;13.462;2023-10-09T05:49:03;279.27;;;135.97;;
9807;SDS011;4943;52.550;13.462;2023-10-09T05:51:47;281.97;;;141.10;;
9807;SDS011;4943;52.550;13.462;2023-10-09T05:54:40;287.97;;;143.63;;
9807;SDS011;4943;52.550;13.462;2023-10-09T05:57:28;277.97;;;129.33;;
9807;SDS011;4943;52.550;13.462;2023-10-09T06:00:13;277.83;;;133.30;;
9807;SDS011;4943;52.550;13.462;2023-10-09T06:03:00;278.83;;;132.97;;
9807;SDS011;4943;52.550;13.462;2023-10-09T06:05:46;278.40;;;129.43;;
9807;SDS011;4943;52.550;13.462;2023-10-09T06:08:30;279.67;;;132.40;;
9807;SDS011;4943;52.550;13.462;2023-10-09T06:11:30;280.40;;;129.97;;
9807;SDS011;4943;52.550;13.462;2023-10-09T06:14:13;278.57;;;128.97;;
9807;SDS011;4943;52.550;13.462;2023-10-09T06:16:42;275.67;;;129.07;;
9807;SDS011;4943;52.550;13.462;2023-10-09T06:19:26;283.53;;;140.40;;
9807;SDS011;4943;52.550;13.462;2023-10-09T06:21:55;283.83;;;142.73;;
9807;SDS011;4943;52.550;13.462;2023-10-09T06:24:45;278.70;;;132.10;;
9807;SDS011;4943;52.550;13.462;2023-10-09T06:27:23;287.30;;;147.10;;
9807;SDS011;4943;52.550;13.462;2023-10-09T06:29:52;282.73;;;144.23;;
9807;SDS011;4943;52.550;13.462;2023-10-09T06:32:35;283.90;;;143.50;;
9807;SDS011;4943;52.550;13.462;2023-10-09T06:35:04;282.77;;;143.13;;
9807;SDS011;4943;52.550;13.462;2023-10-09T06:37:45;282.60;;;143.57;;
9807;SDS011;4943;52.550;13.462;2023-10-09T06:40:33;282.33;;;142.23;;
9807;SDS011;4943;52.550;13.462;2023-10-09T06:43:25;286.93;;;148.10;;
9807;SDS011;4943;52.550;13.462;2023-10-09T06:45:56;283.37;;;142.83;;
9807;SDS011;4943;52.550;13.462;2023-10-09T06:48:45;281.37;;;141.90;;
9807;SDS011;4943;52.550;13.462;2023-10-09T06:51:22;280.57;;;137.27;;
9807;SDS011;4943;52.550;13.462;2023-10-09T06:54:09;280.80;;;137.00;;
9807;SDS011;4943;52.550;13.462;2023-10-09T06:56:42;280.43;;;136.60;;
9807;SDS011;4943;52.550;13.462;2023-10-09T06:59:40;282.00;;;138.77;;
9807;SDS011;4943;52.550;13.462;2023-10-09T07:02:24;279.27;;;135.77;;
9807;SDS011;4943;52.550;13.462;2023-10-09T07:04:53;281.43;;;138.40;;
9807;SDS011;4943;52.550;13.462;2023-10-09T07:07:39;280.13;;;131.87;;
9807;SDS011;4943;52.550;13.462;2023-10-09T07:10:16;278.87;;;134.83;;
9807;SDS011;4943;52.550;13.462;2023-10-09T07:13:03;275.90;;;122.87;;
9807;SDS011;4943;52.550;13.462;2023-10-09T07:15:33;276.00;;;124.83;;
9807;SDS011;4943;52.550;13.462;2023-10-09T07:18:33;278.03;;;131.90;;
9807;SDS011;4943;52.550;13.462;2023-10-09T07:21:16;278.30;;;126.27;;
9807;SDS011;4943;52.550;13.462;2023-10-09T07:23:55;275.27;;;125.07;;
9807;SDS011;4943;52.550;13.462;2023-10-09T07:26:40;277.10;;;123.50;;
9807;SDS011;4943;52.550;13.462;2023-10-09T07:29:15;274.43;;;121.90;;
9807;SDS011;4943;52.550;13.462;2023-10-09T07:31:47;276.93;;;126.60;;
9807;SDS011;4943;52.550;13.462;2023-10-09T07:34:23;273.97;;;124.10;;
9807;SDS011;4943;52.550;13.462;2023-10-09T07:36:58;274.97;;;124.63;;
9807;SDS011;4943;52.550;13.462;2023-10-09T07:39:30;275.13;;;122.47;;
9807;SDS011;4943;52.550;13.462;2023-10-09T07:42:06;276.33;;;124.83;;
9807;SDS011;4943;52.550;13.462;2023-10-09T07:44:47;279.70;;;128.67;;
9807;SDS011;4943;52.550;13.462;2023-10-09T07:47:20;275.23;;;124.40;;
9807;SDS011;4943;52.550;13.462;2023-10-09T07:49:59;276.23;;;123.90;;
9807;SDS011;4943;52.550;13.462;2023-10-09T07:52:30;277.33;;;122.83;;
9807;SDS011;4943;52.550;13.462;2023-10-09T07:54:58;275.23;;;121.93;;
9807;SDS011;4943;52.550;13.462;2023-10-09T07:57:32;273.60;;;120.57;;
9807;SDS011;4943;52.550;13.462;2023-10-09T08:00:08;275.43;;;122.63;;
9807;SDS011;4943;52.550;13.462;2023-10-09T08:03:00;278.50;;;127.40;;
9807;SDS011;4943;52.550;13.462;2023-10-09T08:05:29;277.53;;;125.10;;
9807;SDS011;4943;52.550;13.462;2023-10-09T08:08:01;276.60;;;124.23;;
9807;SDS011;4943;52.550;13.462;2023-10-09T08:11:08;276.80;;;125.13;;
9807;SDS011;4943;52.550;13.462;2023-10-09T08:13:52;277.40;;;123.47;;
9807;SDS011;4943;52.550;13.462;2023-10-09T08:16:29;272.43;;;117.70;;
9807;SDS011;4943;52.550;13.462;2023-10-09T08:19:04;273.70;;;120.87;;
9807;SDS011;4943;52.550;13.462;2023-10-09T08:21:59;271.83;;;116.57;;
9807;SDS011;4943;52.550;13.462;2023-10-09T08:24:44;271.90;;;117.97;;
9807;SDS011;4943;52.550;13.462;2023-10-09T08:27:22;275.40;;;119.43;;
9807;SDS011;4943;52.550;13.462;2023-10-09T08:30:13;273.00;;;120.67;;
9807;SDS011;4943;52.550;13.462;2023-10-09T08:32:56;277.57;;;118.17;;
9807;SDS011;4943;52.550;13.462;2023-10-09T08:35:35;274.97;;;118.20;;
9807;SDS011;4943;52.550;13.462;2023-10-09T08:38:15;273.37;;;120.90;;
9807;SDS011;4943;52.550;13.462;2023-10-09T08:40:50;276.10;;;123.37;;
9807;SDS011;4943;52.550;13.462;2023-10-09T08:43:25;276.00;;;120.43;;
9807;SDS011;4943;52.550;13.462;2023-10-09T08:45:57;275.43;;;122.30;;
9807;SDS011;4943;52.550;13.462;2023-10-09T08:48:30;274.63;;;121.97;;
9807;SDS011;4943;52.550;13.462;2023-10-09T08:50:58;283.23;;;124.07;;
9807;SDS011;4943;52.550;13.462;2023-10-09T08:53:32;276.83;;;123.83;;
9807;SDS011;4943;52.550;13.462;2023-10-09T08:56:00;275.23;;;123.63;;
9807;SDS011;4943;52.550;13.462;2023-10-09T08:58:30;276.70;;;125.73;;
9807;SDS011;4943;52.550;13.462;2023-10-09T09:01:03;277.60;;;126.17;;
9807;SDS011;4943;52.550;13.462;2023-10-09T09:03:39;283.03;;;125.73;;
9807;SDS011;4943;52.550;13.462;2023-10-09T09:06:09;279.70;;;133.93;;
9807;SDS011;4943;52.550;13.462;2023-10-09T09:08:42;281.80;;;133.33;;
9807;SDS011;4943;52.550;13.462;2023-10-09T09:11:12;284.10;;;136.50;;
9807;SDS011;4943;52.550;13.462;2023-10-09T09:13:43;288.70;;;153.87;;
9807;SDS011;4943;52.550;13.462;2023-10-09T09:16:16;291.87;;;153.20;;
9807;SDS011;4943;52.550;13.462;2023-10-09T09:18:52;288.63;;;151.43;;
9807;SDS011;4943;52.550;13.462;2023-10-09T09:21:27;288.50;;;151.30;;
9807;SDS011;4943;52.550;13.462;2023-10-09T09:24:04;294.13;;;150.97;;
9807;SDS011;4943;52.550;13.462;2023-10-09T09:26:42;290.70;;;149.17;;
9807;SDS011;4943;52.550;13.462;2023-10-09T09:29:13;292.10;;;151.67;;
9807;SDS011;4943;52.550;13.462;2023-10-09T09:31:53;292.23;;;155.60;;
9807;SDS011;4943;52.550;13.462;2023-10-09T09:34:25;295.73;;;168.53;;
9807;SDS011;4943;52.550;13.462;2023-10-09T09:36:56;297.37;;;168.17;;
9807;SDS011;4943;52.550;13.462;2023-10-09T09:39:30;297.27;;;164.23;;
9807;SDS011;4943;52.550;13.462;2023-10-09T09:42:14;294.07;;;162.67;;
9807;SDS011;4943;52.550;13.462;2023-10-09T09:44:44;295.30;;;160.93;;
9807;SDS011;4943;52.550;13.462;2023-10-09T09:47:13;290.43;;;153.30;;
9807;SDS011;4943;52.550;13.462;2023-10-09T09:49:52;291.37;;;156.43;;
9807;SDS011;4943;52.550;13.462;2023-10-09T09:52:28;289.00;;;150.80;;
9807;SDS011;4943;52.550;13.462;2023-10-09T09:55:06;292.07;;;154.77;;
9807;SDS011;4943;52.550;13.462;2023-10-09T09:57:41;290.10;;;155.73;;
9807;SDS011;4943;52.550;13.462;2023-10-09T10:00:12;299.90;;;157.70;;
9807;SDS011;4943;52.550;13.462;2023-10-09T10:02:56;292.80;;;158.50;;
9807;SDS011;4943;52.550;13.462;2023-10-09T10:05:29;293.03;;;158.73;;
9807;SDS011;4943;52.550;13.462;2023-10-09T10:07:58;291.23;;;157.07;;
9807;SDS011;4943;52.550;13.462;2023-10-09T10:10:33;298.40;;;158.90;;
9807;SDS011;4943;52.550;13.462;2023-10-09T10:13:03;294.67;;;162.27;;
9807;SDS011;4943;52.550;13.462;2023-10-09T10:18:25;292.03;;;160.23;;
9807;SDS011;4943;52.550;13.462;2023-10-09T10:21:10;291.33;;;160.97;;
9807;SDS011;4943;52.550;13.462;2023-10-09T10:23:43;294.70;;;162.13;;
9807;SDS011;4943;52.550;13.462;2023-10-09T10:26:17;292.07;;;163.27;;
9807;SDS011;4943;52.550;13.462;2023-10-09T10:31:52;297.50;;;172.00;;
9807;SDS011;4943;52.550;13.462;2023-10-09T10:34:23;296.70;;;165.50;;
9807;SDS011;4943;52.550;13.462;2023-10-09T10:36:53;295.97;;;172.13;;
9807;SDS011;4943;52.550;13.462;2023-10-09T10:39:26;310.43;;;179.07;;
9807;SDS011;4943;52.550;13.462;2023-10-09T10:42:14;303.10;;;182.83;;
9807;SDS011;4943;52.550;13.462;2023-10-09T10:45:00;305.13;;;182.10;;
9807;SDS011;4943;52.550;13.462;2023-10-09T10:47:29;308.93;;;196.13;;
9807;SDS011;4943;52.550;13.462;2023-10-09T10:50:01;315.07;;;201.30;;
9807;SDS011;4943;52.550;13.462;2023-10-09T10:53:08;304.77;;;192.53;;
9807;SDS011;4943;52.550;13.462;2023-10-09T10:58:51;315.77;;;208.57;;
9807;SDS011;4943;52.550;13.462;2023-10-09T11:01:38;309.40;;;203.47;;
9807;SDS011;4943;52.550;13.462;2023-10-09T11:08:26;310.90;;;202.87;;
9807;SDS011;4943;52.550;13.462;2023-10-09T11:11:10;309.57;;;200.57;;
9807;SDS011;4943;52.550;13.462;2023-10-09T11:13:42;325.47;;;215.10;;
9807;SDS011;4943;52.550;13.462;2023-10-09T11:16:23;323.87;;;226.53;;
9807;SDS011;4943;52.550;13.462;2023-10-09T11:19:09;321.60;;;225.30;;
9807;SDS011;4943;52.550;13.462;2023-10-09T11:21:55;322.57;;;236.47;;
9807;SDS011;4943;52.550;13.462;2023-10-09T11:24:48;319.03;;;229.57;;
9807;SDS011;4943;52.550;13.462;2023-10-09T11:27:39;315.33;;;223.40;;
9807;SDS011;4943;52.550;13.462;2023-10-09T11:30:17;314.83;;;216.40;;
9807;SDS011;4943;52.550;13.462;2023-10-09T11:33:03;316.50;;;224.80;;
9807;SDS011;4943;52.550;13.462;2023-10-09T11:35:33;317.33;;;226.37;;
9807;SDS011;4943;52.550;13.462;2023-10-09T11:38:01;313.57;;;219.87;;
9807;SDS011;4943;52.550;13.462;2023-10-09T11:40:49;320.20;;;238.60;;
9807;SDS011;4943;52.550;13.462;2023-10-09T11:43:48;328.40;;;247.67;;
9807;SDS011;4943;52.550;13.462;2023-10-09T11:46:21;327.90;;;250.53;;
9807;SDS011;4943;52.550;13.462;2023-10-09T11:49:15;330.70;;;255.13;;
9807;SDS011;4943;52.550;13.462;2023-10-09T11:52:06;328.60;;;257.53;;
9807;SDS011;4943;52.550;13.462;2023-10-09T11:54:52;327.03;;;252.07;;
9807;SDS011;4943;52.550;13.462;2023-10-09T11:57:26;326.97;;;254.90;;
9807;SDS011;4943;52.550;13.462;2023-10-09T11:59:58;323.23;;;239.63;;
9807;SDS011;4943;52.550;13.462;2023-10-09T12:02:26;326.53;;;246.47;;
9807;SDS011;4943;52.550;13.462;2023-10-09T12:04:55;321.90;;;242.47;;
9807;SDS011;4943;52.550;13.462;2023-10-09T12:07:23;331.10;;;241.20;;
9807;SDS011;4943;52.550;13.462;2023-10-09T12:09:53;324.93;;;246.57;;
9807;SDS011;4943;52.550;13.462;2023-10-09T12:12:23;325.40;;;241.43;;
9807;SDS011;4943;52.550;13.462;2023-10-09T12:14:54;325.60;;;242.13;;
9807;SDS011;4943;52.550;13.462;2023-10-09T12:17:23;323.77;;;243.17;;
9807;SDS011;4943;52.550;13.462;2023-10-09T12:19:53;321.77;;;240.70;;
9807;SDS011;4943;52.550;13.462;2023-10-09T12:22:22;325.80;;;248.30;;
9807;SDS011;4943;52.550;13.462;2023-10-09T12:24:53;328.53;;;248.87;;
9807;SDS011;4943;52.550;13.462;2023-10-09T12:27:23;328.37;;;253.73;;
9807;SDS011;4943;52.550;13.462;2023-10-09T12:29:51;328.70;;;256.33;;
9807;SDS011;4943;52.550;13.462;2023-10-09T12:32:24;339.30;;;267.03;;
9807;SDS011;4943;52.550;13.462;2023-10-09T12:34:52;332.33;;;266.77;;
9807;SDS011;4943;52.550;13.462;2023-10-09T12:37:22;335.87;;;272.63;;
9807;SDS011;4943;52.550;13.462;2023-10-09T12:39:50;335.17;;;271.50;;
9807;SDS011;4943;52.550;13.462;2023-10-09T12:42:22;334.47;;;269.40;;
9807;SDS011;4943;52.550;13.462;2023-10-09T12:44:50;325.33;;;253.40;;
9807;SDS011;4943;52.550;13.462;2023-10-09T12:47:18;327.17;;;256.83;;
9807;SDS011;4943;52.550;13.462;2023-10-09T12:49:48;323.93;;;242.97;;
9807;SDS011;4943;52.550;13.462;2023-10-09T12:52:16;322.30;;;241.47;;
9807;SDS011;4943;52.550;13.462;2023-10-09T12:54:46;327.80;;;241.80;;
9807;SDS011;4943;52.550;13.462;2023-10-09T12:57:14;326.30;;;236.37;;
9807;SDS011;4943;52.550;13.462;2023-10-09T12:59:42;326.00;;;234.40;;
9807;SDS011;4943;52.550;13.462;2023-10-09T13:02:12;320.53;;;236.00;;
9807;SDS011;4943;52.550;13.462;2023-10-09T13:04:56;319.17;;;230.17;;
9807;SDS011;4943;52.550;13.462;2023-10-09T13:07:26;321.27;;;227.23;;
9807;SDS011;4943;52.550;13.462;2023-10-09T13:09:54;319.93;;;227.97;;
9807;SDS011;4943;52.550;13.462;2023-10-09T13:12:35;322.53;;;225.70;;
9807;SDS011;4943;52.550;13.462;2023-10-09T13:15:07;320.73;;;224.70;;
9807;SDS011;4943;52.550;13.462;2023-10-09T13:17:36;316.93;;;214.50;;
9807;SDS011;4943;52.550;13.462;2023-10-09T13:20:06;312.73;;;200.60;;
9807;SDS011;4943;52.550;13.462;2023-10-09T13:22:40;312.47;;;199.63;;
9807;SDS011;4943;52.550;13.462;2023-10-09T13:25:09;307.97;;;196.50;;
9807;SDS011;4943;52.550;13.462;2023-10-09T13:27:59;308.90;;;198.60;;
9807;SDS011;4943;52.550;13.462;2023-10-09T13:30:30;310.23;;;196.97;;
9807;SDS011;4943;52.550;13.462;2023-10-09T13:33:06;307.80;;;199.57;;
9807;SDS011;4943;52.550;13.462;2023-10-09T13:35:37;313.97;;;194.07;;
9807;SDS011;4943;52.550;13.462;2023-10-09T13:38:10;309.63;;;201.20;;
9807;SDS011;4943;52.550;13.462;2023-10-09T13:40:38;306.67;;;186.33;;
9807;SDS011;4943;52.550;13.462;2023-10-09T13:43:06;303.70;;;181.90;;
9807;SDS011;4943;52.550;13.462;2023-10-09T13:45:43;301.00;;;179.03;;
9807;SDS011;4943;52.550;13.462;2023-10-09T13:48:16;300.23;;;179.40;;
9807;SDS011;4943;52.550;13.462;2023-10-09T13:50:50;304.83;;;177.10;;
9807;SDS011;4943;52.550;13.462;2023-10-09T13:53:25;300.33;;;176.33;;
9807;SDS011;4943;52.550;13.462;2023-10-09T13:55:53;305.73;;;178.07;;
9807;SDS011;4943;52.550;13.462;2023-10-09T13:58:22;301.70;;;176.10;;
9807;SDS011;4943;52.550;13.462;2023-10-09T14:00:50;301.23;;;171.70;;
9807;SDS011;4943;52.550;13.462;2023-10-09T14:03:20;299.90;;;170.57;;
9807;SDS011;4943;52.550;13.462;2023-10-09T14:05:52;298.23;;;170.93;;
9807;SDS011;4943;52.550;13.462;2023-10-09T14:08:23;299.13;;;169.20;;
9807;SDS011;4943;52.550;13.462;2023-10-09T14:10:52;299.43;;;173.47;;
9807;SDS011;4943;52.550;13.462;2023-10-09T14:13:21;301.93;;;178.50;;
9807;SDS011;4943;52.550;13.462;2023-10-09T14:15:54;299.80;;;166.80;;
9807;SDS011;4943;52.550;13.462;2023-10-09T14:18:26;296.57;;;163.47;;
9807;SDS011;4943;52.550;13.462;2023-10-09T14:21:00;303.97;;;160.83;;
9807;SDS011;4943;52.550;13.462;2023-10-09T14:23:31;294.90;;;159.10;;
9807;SDS011;4943;52.550;13.462;2023-10-09T14:26:01;299.27;;;160.63;;
9807;SDS011;4943;52.550;13.462;2023-10-09T14:28:29;293.80;;;161.27;;
9807;SDS011;4943;52.550;13.462;2023-10-09T14:30:57;300.33;;;165.03;;
9807;SDS011;4943;52.550;13.462;2023-10-09T14:33:27;297.50;;;156.37;;
9807;SDS011;4943;52.550;13.462;2023-10-09T14:36:04;295.10;;;156.27;;
9807;SDS011;4943;52.550;13.462;2023-10-09T14:38:33;293.83;;;156.30;;
9807;SDS011;4943;52.550;13.462;2023-10-09T14:41:05;295.67;;;155.97;;
9807;SDS011;4943;52.550;13.462;2023-10-09T14:43:38;294.33;;;154.90;;
9807;SDS011;4943;52.550;13.462;2023-10-09T14:46:12;302.47;;;152.83;;
9807;SDS011;4943;52.550;13.462;2023-10-09T14:48:41;298.17;;;150.33;;
9807;SDS011;4943;52.550;13.462;2023-10-09T14:51:14;295.17;;;154.20;;
9807;SDS011;4943;52.550;13.462;2023-10-09T14:53:42;292.60;;;152.83;;
9807;SDS011;4943;52.550;13.462;2023-10-09T14:56:10;289.37;;;146.73;;
9807;SDS011;4943;52.550;13.462;2023-10-09T14:58:42;291.73;;;148.70;;
9807;SDS011;4943;52.550;13.462;2023-10-09T15:01:14;294.10;;;155.30;;
9807;SDS011;4943;52.550;13.462;2023-10-09T15:03:46;289.33;;;150.17;;
9807;SDS011;4943;52.550;13.462;2023-10-09T15:06:17;290.83;;;150.50;;
9807;SDS011;4943;52.550;13.462;2023-10-09T15:08:45;293.23;;;150.87;;